Decoded Metar for KHYA (HYANNIS in MA, USA) (IATA:HYA) | Meteo·Mobile Aviation Weather
aviador You're here:

KHYA Decoded Metar

HYANNIS in MA, USA
Report Time2018-12-16 10:56:00
UTC Time2018-12-16 11:17:48
Flight Rules mvfr MVFR
Wind060° at 07 kt
W.Decomp.*RWY 06: 6.7 kt HW 1.9 kt RCW
RWY 15: 1.9 kt HW 6.7 kt LCW
W.Rank060° ranks 29
Current wind is above 060° avg. (6.7)
Visibility9999 m
Phenomena:N/A
Clouds:Broken 029 Hf
Expected CloudBase > 2,400 ft AGL from Temp-Dew spread
Ceiling2,900 ft
Temp06°C (ISA -9)
Dew Point00°C (66% RH)
AAT1.5°C
QNH1022 hPa
Density Alt-1,217 ft
Elevation72 ft
Report Wrong Elevation
Raw Report
KHYA 161056Z 06007KT 10SM BKN029 06/00 A3019 RMK AO2 SLP223
T00610000=

Extra information for KHYA:More info

Metar Taf Metar & Taf Last 4 Metars F.Rules Stats Wind Profile Meteogram Temp Stats Airport Information Weather charts Add Link Nearby VenuesMetar ALERT Operation Metar Decoded Social comments

AIRNAV info for KHYA